Nyk Apollo — HOQM — position and weather

sailwx.info

Track history (hours):
 
Tides and Currents Weather Stations Pressure Air Temp Water Temp Dewpoint Dewpoint Depression Visibility Wind Speed Wind Dir Waves Ship Positions

Nyk Apollo

Last reported at 2017-Oct-16 07:12 UTC. Time now 2017-Oct-22 10:25 UTC.
Position N 34°51' E 140°04'.

Length 299.9 m; beam 40 m.

Type: Cargo ship. MMSI: 355981000.

Date/timePositionNaut miles runAvg speedWind from/ knotsBaromVisibWave heightAir tempDewpointWater temp
2017-Oct-16 07:12N 34°51' E 140°04'919.8
2017-Oct-16 06:46N 34°46' E 139°55'520.4
2017-Oct-16 06:30N 34°44' E 139°49'1319.0
2017-Oct-16 05:50N 34°39' E 139°34'  
2017-Oct-10 14:47N 22°33' E 120°20'4 4.6
2017-Oct-10 14:00N 22°32' E 120°16'3 6.6
2017-Oct-10 13:30N 22°32' E 120°12'4 7.1
2017-Oct-10 13:00N 22°30' E 120°09'510.3
2017-Oct-10 12:30N 22°29' E 120°04'815.6
2017-Oct-10 12:00N 22°27' E 119°55'919.0
2017-Oct-10 11:30N 22°24' E 119°45'1418.6
2017-Oct-10 10:47N 22°16' E 119°34'519.7
2017-Oct-10 10:30N 22°12' E 119°30'1019.5
2017-Oct-10 10:00N 22°05' E 119°23'918.9
2017-Oct-10 09:31N 21°58' E 119°16'918.3
2017-Oct-10 09:01N 21°51' E 119°09'1019.4
2017-Oct-10 08:31N 21°45' E 119°02'1020.6
2017-Oct-10 08:01N 21°37' E 118°54'  
Track history (hours):
 
Tides and Currents Weather Stations Pressure Air Temp Water Temp Dewpoint Dewpoint Depression Visibility Wind Speed Wind Dir Waves Ship Positions

Nyk Apollo

Last reported at 2017-Oct-16 07:12 UTC. Time now 2017-Oct-22 10:25 UTC.
Position N 34°51' E 140°04'.

Length 299.9 m; beam 40 m.

Type: Cargo ship. MMSI: 355981000.

Date/timePositionNaut miles runAvg speedWind from/ knotsBaromVisibWave heightAir tempDewpointWater temp
2017-Oct-16 07:12N 34°51' E 140°04'919.8
2017-Oct-16 06:46N 34°46' E 139°55'520.4
2017-Oct-16 06:30N 34°44' E 139°49'1319.0
2017-Oct-16 05:50N 34°39' E 139°34'  
2017-Oct-10 14:47N 22°33' E 120°20'4 4.6
2017-Oct-10 14:00N 22°32' E 120°16'3 6.6
2017-Oct-10 13:30N 22°32' E 120°12'4 7.1
2017-Oct-10 13:00N 22°30' E 120°09'510.3
2017-Oct-10 12:30N 22°29' E 120°04'815.6
2017-Oct-10 12:00N 22°27' E 119°55'919.0
2017-Oct-10 11:30N 22°24' E 119°45'1418.6
2017-Oct-10 10:47N 22°16' E 119°34'519.7
2017-Oct-10 10:30N 22°12' E 119°30'1019.5
2017-Oct-10 10:00N 22°05' E 119°23'918.9
2017-Oct-10 09:31N 21°58' E 119°16'918.3
2017-Oct-10 09:01N 21°51' E 119°09'1019.4
2017-Oct-10 08:31N 21°45' E 119°02'1020.6
2017-Oct-10 08:01N 21°37' E 118°54'  

Dump ship's entire track history